Portada
METAR-TAF:

METAR-TAF

Aeroports :

Smith Field

Siloam Springs, Arkansas, Estats Units d'Amèrica

latitud: 36-12N, longitud: 094-29W, altitud: 300 m

Observació

L'informe es va fer fa 56 minuts, a les 13:56 UTC
Vent 7 kt del Sud
Temperatura -4°C
Humitat 68%
Pressió 1023 hPa
Visibilitat: 16.1 km
Cel clar

METAR: KSLG 131356Z AUTO 18007KT 10SM CLR M04/M09 A3022 RMK AO2 SLP250 T10441094 FZRANO

Hora: 08:52 (14:52 UTC)


TAF: manca

Observacions i pronòstics meteorològics de més de 4000 aeroports (METAR i TAF).

Les estacions disponibles són els punts grocs i vermells al mapa.

Posi el ratolí al punt desitjat per veure el nom de l'estació.

Feu clic per veure les observacions i els pronòstics meteorològics.

Per canviar el mapa: feu clic els botons verds amb una creu de color negre per apropar; al botó verd amb un guió per allunyar la imatge; o en les fletxes verdes per a mapes adjacents.


METAR-TAF: